createdAt,value
2019-03-11T00:02:40.998Z,99.30
2019-03-11T00:07:46.440Z,99.40
2019-03-11T00:12:51.302Z,99.60
2019-03-11T00:17:56.175Z,99.80
2019-03-11T00:23:01.031Z,99.90
2019-03-11T00:28:05.887Z,99.90
2019-03-11T00:33:10.752Z,99.90
2019-03-11T00:38:15.572Z,99.90
2019-03-11T00:43:20.416Z,99.90
2019-03-11T00:48:25.276Z,99.80
2019-03-11T00:53:30.217Z,99.70
2019-03-11T00:58:35.260Z,99.60
2019-03-11T01:03:40.151Z,99.70
2019-03-11T01:08:45.210Z,99.70
2019-03-11T01:13:50.069Z,99.80
2019-03-11T01:18:54.871Z,99.60
2019-03-11T01:23:59.743Z,99.40
2019-03-11T01:29:04.584Z,99.30
2019-03-11T01:34:09.458Z,99.40
2019-03-11T01:39:14.218Z,99.30
2019-03-11T01:44:19.043Z,99.20
2019-03-11T01:49:24.133Z,99.30
2019-03-11T01:54:29.250Z,99.10
2019-03-11T01:59:34.016Z,99.10
2019-03-11T02:04:38.796Z,99.10
2019-03-11T02:09:46.029Z,98.90
2019-03-11T02:14:52.307Z,98.80
2019-03-11T02:19:58.056Z,98.80
2019-03-11T02:25:03.608Z,98.90
2019-03-11T02:30:16.230Z,99.10
2019-03-11T02:35:31.404Z,99.10
2019-03-11T02:40:36.687Z,99.20
2019-03-11T02:45:42.273Z,99.20
2019-03-11T02:50:47.752Z,99.30
2019-03-11T02:55:53.076Z,99.30
2019-03-11T03:01:16.091Z,99.30
2019-03-11T03:06:21.323Z,99.10
2019-03-11T03:11:26.172Z,98.80
2019-03-11T03:16:31.043Z,98.60
2019-03-11T03:21:35.890Z,98.20
2019-03-11T03:26:40.676Z,98.20
2019-03-11T03:31:45.554Z,98.00
2019-03-11T03:36:50.392Z,98.40
2019-03-11T03:41:55.181Z,97.80
2019-03-11T03:47:00.061Z,97.90
2019-03-11T03:52:04.889Z,98.10
2019-03-11T03:57:09.859Z,98.00
2019-03-11T04:02:14.721Z,97.80
2019-03-11T04:07:19.862Z,96.30
2019-03-11T04:12:24.666Z,94.80
2019-03-11T04:17:29.628Z,94.00
2019-03-11T04:22:34.506Z,93.40
2019-03-11T04:27:39.385Z,93.50
2019-03-11T04:32:44.223Z,93.40
2019-03-11T04:37:49.086Z,93.50
2019-03-11T04:42:53.936Z,93.50
2019-03-11T04:47:58.808Z,93.40
2019-03-11T04:53:03.656Z,93.10
2019-03-11T04:58:08.687Z,92.80
2019-03-11T05:03:13.620Z,92.90
2019-03-11T05:08:18.838Z,92.80
2019-03-11T05:13:23.710Z,92.70
2019-03-11T05:18:28.582Z,92.50
2019-03-11T05:23:33.398Z,92.30
2019-03-11T05:28:38.420Z,92.70
2019-03-11T05:33:43.196Z,93.30
2019-03-11T05:38:47.929Z,93.60
2019-03-11T05:43:52.719Z,94.10
2019-03-11T05:48:57.583Z,94.30
2019-03-11T05:54:02.383Z,94.60
2019-03-11T05:59:07.226Z,94.80
2019-03-11T06:04:12.077Z,94.80
2019-03-11T06:09:17.233Z,95.00
2019-03-11T06:14:22.027Z,95.00
2019-03-11T06:19:26.916Z,94.90
2019-03-11T06:24:31.699Z,94.80
2019-03-11T06:29:36.524Z,94.70
2019-03-11T06:34:41.331Z,94.80
2019-03-11T06:39:46.181Z,94.60
2019-03-11T06:44:50.952Z,94.50
2019-03-11T06:49:55.734Z,94.50
2019-03-11T06:55:00.586Z,94.40
2019-03-11T07:00:08.483Z,94.40
2019-03-11T07:05:19.806Z,94.20
2019-03-11T07:10:21.584Z,93.80
2019-03-11T07:15:26.438Z,93.60
2019-03-11T07:20:31.292Z,93.70
2019-03-11T07:25:36.149Z,93.50
2019-03-11T07:30:41.012Z,92.80
2019-03-11T07:35:45.860Z,91.90
2019-03-11T07:40:50.984Z,91.30
2019-03-11T07:45:55.748Z,90.90
2019-03-11T07:51:00.615Z,90.70
2019-03-11T07:56:05.464Z,90.60
2019-03-11T08:01:10.439Z,90.20
2019-03-11T08:06:18.850Z,85.70
2019-03-11T08:11:22.100Z,84.60
2019-03-11T08:16:26.889Z,84.30
2019-03-11T08:21:31.732Z,83.10
2019-03-11T08:26:36.594Z,81.00
2019-03-11T08:31:41.383Z,76.90
2019-03-11T08:36:46.142Z,74.50
2019-03-11T08:41:50.995Z,71.70
2019-03-11T08:46:55.878Z,73.40
2019-03-11T08:52:00.816Z,74.50
2019-03-11T08:57:05.668Z,76.30
2019-03-11T09:02:10.599Z,75.20
2019-03-11T09:07:15.452Z,76.90
2019-03-11T09:12:21.935Z,74.60
2019-03-11T09:17:26.808Z,73.30
2019-03-11T09:22:31.652Z,70.60
2019-03-11T09:27:36.438Z,70.30
2019-03-11T09:32:41.298Z,70.30
2019-03-11T09:37:46.171Z,66.80
2019-03-11T09:42:51.019Z,65.00
2019-03-11T09:47:55.868Z,64.40
2019-03-11T09:53:00.728Z,65.90
2019-03-11T09:58:05.572Z,65.30
2019-03-11T10:03:10.535Z,60.30
2019-03-11T10:08:15.849Z,62.40
2019-03-11T10:13:20.801Z,61.50
2019-03-11T10:18:25.635Z,62.00
2019-03-11T10:23:32.275Z,61.30
2019-03-11T10:28:36.865Z,60.70
2019-03-11T10:33:41.652Z,61.50
2019-03-11T10:38:46.524Z,59.40
2019-03-11T10:43:51.302Z,60.20
2019-03-11T10:48:56.166Z,62.40
2019-03-11T10:54:01.013Z,57.70
2019-03-11T10:59:05.875Z,59.80
2019-03-11T11:04:10.863Z,59.60
2019-03-11T11:09:15.828Z,60.80
2019-03-11T11:14:21.066Z,57.50
2019-03-11T11:19:25.930Z,58.60
2019-03-11T11:24:30.779Z,60.20
2019-03-11T11:29:35.659Z,54.60
2019-03-11T11:34:40.454Z,57.20
2019-03-11T11:39:45.258Z,58.00
2019-03-11T11:44:50.178Z,51.70
2019-03-11T11:49:54.896Z,53.30
2019-03-11T11:54:59.689Z,55.30
2019-03-11T12:00:17.548Z,54.90
2019-03-11T12:05:22.567Z,56.80
2019-03-11T12:10:29.345Z,58.80
2019-03-11T12:15:34.751Z,58.90
2019-03-11T12:20:39.600Z,59.30
2019-03-11T12:25:44.445Z,65.00
2019-03-11T12:30:49.298Z,70.50
2019-03-11T12:35:54.171Z,69.80
2019-03-11T12:40:58.933Z,73.30
2019-03-11T12:46:03.731Z,73.60
2019-03-11T12:51:08.593Z,74.40
2019-03-11T12:56:13.465Z,73.50
2019-03-11T13:01:18.319Z,73.30
2019-03-11T13:06:23.186Z,74.70
2019-03-11T13:11:28.633Z,74.70
2019-03-11T13:16:33.535Z,72.00
2019-03-11T13:21:38.500Z,73.10
2019-03-11T13:26:43.366Z,74.40
2019-03-11T13:31:48.220Z,71.90
2019-03-11T13:36:53.077Z,74.00
2019-03-11T13:42:21.044Z,74.70
2019-03-11T13:47:28.508Z,76.90
2019-03-11T13:52:33.343Z,76.90
2019-03-11T13:57:38.219Z,77.50
2019-03-11T14:02:43.056Z,76.20
2019-03-11T14:07:47.915Z,76.50
2019-03-11T14:12:52.959Z,77.20
2019-03-11T14:17:57.873Z,78.30
2019-03-11T14:23:03.111Z,78.70
2019-03-11T14:28:08.251Z,79.00
2019-03-11T14:33:13.091Z,80.30
2019-03-11T14:38:17.955Z,80.30
2019-03-11T14:43:22.834Z,81.20
2019-03-11T14:48:27.714Z,82.00
2019-03-11T14:53:32.562Z,81.70
2019-03-11T14:58:37.416Z,82.20
2019-03-11T15:03:44.658Z,82.40
2019-03-11T15:08:50.205Z,82.60
2019-03-11T15:13:55.184Z,83.70
2019-03-11T15:19:00.045Z,83.90
2019-03-11T15:24:04.891Z,83.70
2019-03-11T15:29:10.795Z,85.10
2019-03-11T15:34:15.616Z,85.20
2019-03-11T15:39:20.391Z,86.80
2019-03-11T15:44:27.424Z,87.70
2019-03-11T15:49:31.660Z,87.50
2019-03-11T15:54:36.408Z,87.90
2019-03-11T15:59:41.161Z,88.70
2019-03-11T16:04:46.026Z,88.00
2019-03-11T16:09:50.869Z,88.20
2019-03-11T16:14:55.911Z,89.00
2019-03-11T16:20:00.739Z,90.00
2019-03-11T16:25:08.064Z,90.20
2019-03-11T16:30:23.884Z,90.30
2019-03-11T16:35:29.283Z,90.80
2019-03-11T16:40:34.110Z,91.30
2019-03-11T16:45:38.954Z,91.80
2019-03-11T16:50:43.707Z,92.10
2019-03-11T16:55:52.537Z,92.30
2019-03-11T17:00:59.303Z,92.20
2019-03-11T17:06:04.179Z,91.80
2019-03-11T17:11:09.003Z,91.70
2019-03-11T17:16:14.088Z,91.80
2019-03-11T17:21:18.934Z,91.60
2019-03-11T17:26:23.772Z,91.40
2019-03-11T17:31:28.632Z,91.40
2019-03-11T17:36:33.460Z,91.20
2019-03-11T17:41:38.339Z,91.20
2019-03-11T17:46:43.168Z,91.20
2019-03-11T17:51:48.025Z,91.40
2019-03-11T17:56:52.956Z,91.20
2019-03-11T18:01:57.811Z,92.60
2019-03-11T18:07:02.675Z,92.70
2019-03-11T18:12:07.527Z,93.30
2019-03-11T18:17:12.469Z,93.80
2019-03-11T18:22:17.323Z,94.10
2019-03-11T18:27:22.253Z,94.30
2019-03-11T18:32:27.108Z,94.60
2019-03-11T18:37:31.930Z,94.90
2019-03-11T18:42:36.828Z,95.30
2019-03-11T18:47:41.676Z,95.30
2019-03-11T18:52:46.530Z,95.40
2019-03-11T18:57:51.378Z,95.30
2019-03-11T19:02:56.202Z,95.30
2019-03-11T19:08:01.053Z,95.40
2019-03-11T19:13:09.552Z,96.00
2019-03-11T19:18:13.962Z,96.00
2019-03-11T19:23:18.772Z,96.20
2019-03-11T19:28:23.660Z,96.50
2019-03-11T19:33:28.468Z,96.90
2019-03-11T19:38:33.229Z,96.90
2019-03-11T19:43:38.075Z,97.00
2019-03-11T19:48:43.630Z,97.00
2019-03-11T19:53:48.529Z,97.10
2019-03-11T19:58:53.509Z,97.60
2019-03-11T20:03:58.369Z,97.00
2019-03-11T20:09:03.768Z,97.00
2019-03-11T20:14:08.576Z,97.00
2019-03-11T20:19:14.521Z,96.90
2019-03-11T20:24:19.372Z,97.20
2019-03-11T20:29:24.299Z,97.10
2019-03-11T20:34:29.277Z,97.50
2019-03-11T20:39:34.277Z,96.90
2019-03-11T20:44:39.183Z,96.50
2019-03-11T20:49:44.199Z,96.80
2019-03-11T20:54:49.113Z,97.00
2019-03-11T20:59:54.127Z,97.60
2019-03-11T21:05:00.766Z,97.40
2019-03-11T21:10:08.790Z,97.40
2019-03-11T21:15:17.232Z,97.50
2019-03-11T21:20:22.144Z,97.70
2019-03-11T21:25:26.962Z,98.00
2019-03-11T21:30:31.798Z,98.00
2019-03-11T21:35:36.762Z,98.20
2019-03-11T21:40:41.694Z,98.20
2019-03-11T21:45:46.575Z,98.30
2019-03-11T21:50:51.422Z,98.20
2019-03-11T21:55:56.200Z,98.10
2019-03-11T22:01:00.997Z,98.00
2019-03-11T22:06:05.828Z,98.20
2019-03-11T22:11:10.653Z,98.30
2019-03-11T22:16:15.514Z,97.90
2019-03-11T22:21:20.460Z,98.00
2019-03-11T22:26:25.324Z,98.30
2019-03-11T22:31:30.461Z,98.50
2019-03-11T22:36:35.336Z,98.50
2019-03-11T22:41:40.177Z,98.70
2019-03-11T22:46:45.030Z,98.70
2019-03-11T22:51:49.879Z,98.50
2019-03-11T22:56:54.726Z,98.30
2019-03-11T23:01:59.565Z,98.30
2019-03-11T23:07:05.082Z,98.20
2019-03-11T23:12:09.927Z,98.20
2019-03-11T23:17:14.752Z,98.20
2019-03-11T23:22:19.675Z,98.40
2019-03-11T23:27:24.500Z,98.20
2019-03-11T23:32:29.270Z,98.30
2019-03-11T23:37:34.111Z,98.30
2019-03-11T23:42:38.954Z,98.40
2019-03-11T23:47:43.714Z,98.30
2019-03-11T23:52:48.545Z,98.40
2019-03-11T23:57:53.386Z,98.30
